Cobb County-Mc Collum Field
KRYY : now visible

Airfield :











YOU CAN JOIN US ON...

 
LOGIN :

Register | Disclaimer

   EN    FR    IT 

 









Legend :    VFR   Marginal VFR   IFR   Intensive IFR   Very Intensive IFR
Visi :
Ceiling :
>= 8 km
>= 3000ft
5 to 8 km
1000 to 3000 ft
1500m to 5 km
500 to 1000 ft
800 to 1500m
200 to 500 ft
< 800m
< 200 ft
Symbols :   Thunderstorms  Fog  Heavy snow  Heavy precipitations  Wind > 20 kt






- Airport Elevation : 1040 ft


KRYY - Cobb County-Mc Collum Field

CURRENT METAR :
  • 100950Z AUTO 33009G20KT 300V010 10SM CLR 12/M01 A2986 RMK AO2 SLP835 T01221011 PNO $

EXPIRED METARs :
  • 100850Z AUTO 30007G17KT 10SM CLR 14/00 A2981 RMK AO2 SLP817 6//// T01390000 56009 PNO $
  • 100750Z AUTO 31004KT 10SM CLR 14/01 A2981 RMK AO2 SLP818 T01390011 PNO $

TAF KRYY
Valid from the 10 at 10:00 until the 11 at 06:00 UTC


100930Z 1010/1106 31008G17KT P6SM FEW060 SCT150 BKN250
FM101200 31012G22KT P6SM SCT120 BKN250
FM101400 32016G26KT P6SM SCT250
FM101900 32012G18KT P6SM SKC
FM110100 33006KT P6SM SKC



MET'MAP, your aeronautical weather chart ! - Copyright ORBIFLY December 2007 - Disclaimer

ORBIFLY MET'MAP TEAM :

Programming & Development : Alexandra Zaïnal
Concept & original design : Baudouin d'Aumeries
Assistance for programming : Marc-Olivier Méhu
Technical & hardware support : Manuel Goepfert

Contact : metmap@orbifly.com




SOURCES & CREDITS :

   NOAA       Earth
Advisory